sensor_id;sensor_type;location;lat;lon;timestamp;temperature;humidity
20091;DHT22;10205;49.678;6.560;2023-07-31T00:00:48;24.60;51.00
20091;DHT22;10205;49.678;6.560;2023-07-31T00:03:15;24.60;51.10
20091;DHT22;10205;49.678;6.560;2023-07-31T00:05:44;24.60;51.10
20091;DHT22;10205;49.678;6.560;2023-07-31T00:08:12;24.60;51.30
20091;DHT22;10205;49.678;6.560;2023-07-31T00:10:39;24.50;51.20
20091;DHT22;10205;49.678;6.560;2023-07-31T00:13:07;24.50;51.40
20091;DHT22;10205;49.678;6.560;2023-07-31T00:15:34;24.50;51.30
20091;DHT22;10205;49.678;6.560;2023-07-31T00:18:03;24.50;51.50
20091;DHT22;10205;49.678;6.560;2023-07-31T00:20:31;24.50;51.70
20091;DHT22;10205;49.678;6.560;2023-07-31T00:22:59;24.50;51.40
20091;DHT22;10205;49.678;6.560;2023-07-31T00:25:26;24.50;51.40
20091;DHT22;10205;49.678;6.560;2023-07-31T00:27:54;24.50;51.30
20091;DHT22;10205;49.678;6.560;2023-07-31T00:30:23;24.50;51.60
20091;DHT22;10205;49.678;6.560;2023-07-31T00:32:52;24.50;51.60
20091;DHT22;10205;49.678;6.560;2023-07-31T00:35:21;24.50;51.80
20091;DHT22;10205;49.678;6.560;2023-07-31T00:37:49;24.40;51.50
20091;DHT22;10205;49.678;6.560;2023-07-31T00:40:16;24.40;51.80
20091;DHT22;10205;49.678;6.560;2023-07-31T00:42:44;24.40;51.60
20091;DHT22;10205;49.678;6.560;2023-07-31T00:45:12;24.40;51.90
20091;DHT22;10205;49.678;6.560;2023-07-31T00:47:39;24.40;51.90
20091;DHT22;10205;49.678;6.560;2023-07-31T00:50:08;24.40;52.00
20091;DHT22;10205;49.678;6.560;2023-07-31T00:52:37;24.40;52.00
20091;DHT22;10205;49.678;6.560;2023-07-31T00:55:05;24.40;51.60
20091;DHT22;10205;49.678;6.560;2023-07-31T00:57:33;24.40;51.80
20091;DHT22;10205;49.678;6.560;2023-07-31T01:00:04;24.40;51.80
20091;DHT22;10205;49.678;6.560;2023-07-31T01:02:32;24.30;51.90
20091;DHT22;10205;49.678;6.560;2023-07-31T01:05:00;24.30;52.00
20091;DHT22;10205;49.678;6.560;2023-07-31T01:07:35;24.30;52.20
20091;DHT22;10205;49.678;6.560;2023-07-31T01:10:16;24.30;52.20
20091;DHT22;10205;49.678;6.560;2023-07-31T01:12:48;24.20;52.30
20091;DHT22;10205;49.678;6.560;2023-07-31T01:15:18;24.20;51.90
20091;DHT22;10205;49.678;6.560;2023-07-31T01:17:46;24.20;52.10
20091;DHT22;10205;49.678;6.560;2023-07-31T01:20:17;24.20;52.00
20091;DHT22;10205;49.678;6.560;2023-07-31T01:23:00;24.20;52.00
20091;DHT22;10205;49.678;6.560;2023-07-31T01:26:03;24.20;51.60
20091;DHT22;10205;49.678;6.560;2023-07-31T01:28:44;24.20;52.30
20091;DHT22;10205;49.678;6.560;2023-07-31T01:31:20;24.20;52.40
20091;DHT22;10205;49.678;6.560;2023-07-31T01:33:51;24.10;52.40
20091;DHT22;10205;49.678;6.560;2023-07-31T01:36:21;24.10;52.60
20091;DHT22;10205;49.678;6.560;2023-07-31T01:38:48;24.00;52.30
20091;DHT22;10205;49.678;6.560;2023-07-31T01:41:18;24.00;52.50
20091;DHT22;10205;49.678;6.560;2023-07-31T01:43:46;24.00;52.50
20091;DHT22;10205;49.678;6.560;2023-07-31T01:46:13;24.00;52.40
20091;DHT22;10205;49.678;6.560;2023-07-31T01:48:41;24.00;52.70
20091;DHT22;10205;49.678;6.560;2023-07-31T01:51:08;23.90;52.70
20091;DHT22;10205;49.678;6.560;2023-07-31T01:53:36;23.90;52.60
20091;DHT22;10205;49.678;6.560;2023-07-31T01:56:03;23.90;52.80
20091;DHT22;10205;49.678;6.560;2023-07-31T01:58:33;23.90;52.80
20091;DHT22;10205;49.678;6.560;2023-07-31T02:01:01;23.80;52.60
20091;DHT22;10205;49.678;6.560;2023-07-31T02:03:28;23.80;52.90
20091;DHT22;10205;49.678;6.560;2023-07-31T02:05:56;23.80;52.80
20091;DHT22;10205;49.678;6.560;2023-07-31T02:08:23;23.80;52.80
20091;DHT22;10205;49.678;6.560;2023-07-31T02:10:51;23.80;52.40
20091;DHT22;10205;49.678;6.560;2023-07-31T02:13:19;23.80;52.80
20091;DHT22;10205;49.678;6.560;2023-07-31T02:15:48;23.70;53.00
20091;DHT22;10205;49.678;6.560;2023-07-31T02:18:16;23.70;53.50
20091;DHT22;10205;49.678;6.560;2023-07-31T02:20:43;23.70;53.00
20091;DHT22;10205;49.678;6.560;2023-07-31T02:23:15;23.70;52.70
20091;DHT22;10205;49.678;6.560;2023-07-31T02:25:43;23.70;53.20
20091;DHT22;10205;49.678;6.560;2023-07-31T02:28:11;23.70;53.40
20091;DHT22;10205;49.678;6.560;2023-07-31T02:30:39;23.60;53.30
20091;DHT22;10205;49.678;6.560;2023-07-31T02:33:08;23.60;53.30
20091;DHT22;10205;49.678;6.560;2023-07-31T02:35:35;23.60;52.90
20091;DHT22;10205;49.678;6.560;2023-07-31T02:38:03;23.60;53.30
20091;DHT22;10205;49.678;6.560;2023-07-31T02:40:31;23.60;53.30
20091;DHT22;10205;49.678;6.560;2023-07-31T02:42:58;23.60;53.40
20091;DHT22;10205;49.678;6.560;2023-07-31T02:45:26;23.50;53.20
20091;DHT22;10205;49.678;6.560;2023-07-31T02:47:53;23.50;53.30
20091;DHT22;10205;49.678;6.560;2023-07-31T02:50:22;23.50;53.40
20091;DHT22;10205;49.678;6.560;2023-07-31T02:52:50;23.50;53.20
20091;DHT22;10205;49.678;6.560;2023-07-31T02:55:17;23.50;53.30
20091;DHT22;10205;49.678;6.560;2023-07-31T02:57:45;23.50;53.50
20091;DHT22;10205;49.678;6.560;2023-07-31T03:00:13;23.50;53.60
20091;DHT22;10205;49.678;6.560;2023-07-31T03:02:40;23.50;53.50
20091;DHT22;10205;49.678;6.560;2023-07-31T03:05:08;23.50;53.60
20091;DHT22;10205;49.678;6.560;2023-07-31T03:07:37;23.50;53.60
20091;DHT22;10205;49.678;6.560;2023-07-31T03:10:06;23.40;53.20
20091;DHT22;10205;49.678;6.560;2023-07-31T03:12:34;23.40;53.50
20091;DHT22;10205;49.678;6.560;2023-07-31T03:15:02;23.40;53.60
20091;DHT22;10205;49.678;6.560;2023-07-31T03:17:29;23.40;53.70
20091;DHT22;10205;49.678;6.560;2023-07-31T03:19:57;23.40;53.60
20091;DHT22;10205;49.678;6.560;2023-07-31T03:22:25;23.30;53.40
20091;DHT22;10205;49.678;6.560;2023-07-31T03:24:55;23.30;53.50
20091;DHT22;10205;49.678;6.560;2023-07-31T03:27:24;23.20;53.90
20091;DHT22;10205;49.678;6.560;2023-07-31T03:29:51;23.20;53.90
20091;DHT22;10205;49.678;6.560;2023-07-31T03:32:19;23.20;54.10
20091;DHT22;10205;49.678;6.560;2023-07-31T03:34:49;23.20;54.10
20091;DHT22;10205;49.678;6.560;2023-07-31T03:37:16;23.20;54.20
20091;DHT22;10205;49.678;6.560;2023-07-31T03:39:44;23.10;53.80
20091;DHT22;10205;49.678;6.560;2023-07-31T03:42:13;23.10;53.90
20091;DHT22;10205;49.678;6.560;2023-07-31T03:44:41;23.10;54.30
20091;DHT22;10205;49.678;6.560;2023-07-31T03:47:09;23.10;54.00
20091;DHT22;10205;49.678;6.560;2023-07-31T03:49:36;23.10;54.30
20091;DHT22;10205;49.678;6.560;2023-07-31T03:52:04;23.10;54.30
20091;DHT22;10205;49.678;6.560;2023-07-31T03:54:32;23.10;54.40
20091;DHT22;10205;49.678;6.560;2023-07-31T03:57:00;23.10;54.30
20091;DHT22;10205;49.678;6.560;2023-07-31T03:59:29;23.00;54.30
20091;DHT22;10205;49.678;6.560;2023-07-31T04:01:57;23.00;54.50
20091;DHT22;10205;49.678;6.560;2023-07-31T04:04:24;23.00;54.50
20091;DHT22;10205;49.678;6.560;2023-07-31T04:06:52;22.90;54.60
20091;DHT22;10205;49.678;6.560;2023-07-31T04:09:20;22.90;54.70
20091;DHT22;10205;49.678;6.560;2023-07-31T04:11:47;22.90;54.50
20091;DHT22;10205;49.678;6.560;2023-07-31T04:14:16;22.90;54.70
20091;DHT22;10205;49.678;6.560;2023-07-31T04:16:45;22.90;54.60
20091;DHT22;10205;49.678;6.560;2023-07-31T04:19:12;22.90;55.40
20091;DHT22;10205;49.678;6.560;2023-07-31T04:21:42;22.90;54.80
20091;DHT22;10205;49.678;6.560;2023-07-31T04:24:09;22.80;54.50
20091;DHT22;10205;49.678;6.560;2023-07-31T04:26:37;22.80;54.80
20091;DHT22;10205;49.678;6.560;2023-07-31T04:29:05;22.80;54.70
20091;DHT22;10205;49.678;6.560;2023-07-31T04:31:33;22.80;54.80
20091;DHT22;10205;49.678;6.560;2023-07-31T04:34:03;22.70;54.90
20091;DHT22;10205;49.678;6.560;2023-07-31T04:36:31;22.70;55.10
20091;DHT22;10205;49.678;6.560;2023-07-31T04:39:01;22.70;54.90
20091;DHT22;10205;49.678;6.560;2023-07-31T04:41:29;22.70;55.10
20091;DHT22;10205;49.678;6.560;2023-07-31T04:43:57;22.70;55.00
20091;DHT22;10205;49.678;6.560;2023-07-31T04:46:24;22.60;55.10
20091;DHT22;10205;49.678;6.560;2023-07-31T04:48:52;22.60;55.20
20091;DHT22;10205;49.678;6.560;2023-07-31T04:51:21;22.60;55.20
20091;DHT22;10205;49.678;6.560;2023-07-31T04:53:49;22.60;55.10
20091;DHT22;10205;49.678;6.560;2023-07-31T04:56:16;22.60;55.20
20091;DHT22;10205;49.678;6.560;2023-07-31T04:58:44;22.60;55.30
20091;DHT22;10205;49.678;6.560;2023-07-31T05:01:12;22.60;55.30
20091;DHT22;10205;49.678;6.560;2023-07-31T05:03:39;22.60;55.30
20091;DHT22;10205;49.678;6.560;2023-07-31T05:06:06;22.60;55.30
20091;DHT22;10205;49.678;6.560;2023-07-31T05:08:35;22.60;55.20
20091;DHT22;10205;49.678;6.560;2023-07-31T05:11:03;22.60;55.50
20091;DHT22;10205;49.678;6.560;2023-07-31T05:13:30;22.60;55.40
20091;DHT22;10205;49.678;6.560;2023-07-31T05:15:58;22.60;55.40
20091;DHT22;10205;49.678;6.560;2023-07-31T05:18:25;22.50;55.40
20091;DHT22;10205;49.678;6.560;2023-07-31T05:20:53;22.50;55.40
20091;DHT22;10205;49.678;6.560;2023-07-31T05:23:20;22.50;55.40
20091;DHT22;10205;49.678;6.560;2023-07-31T05:25:49;22.50;55.50
20091;DHT22;10205;49.678;6.560;2023-07-31T05:28:16;22.50;55.70
20091;DHT22;10205;49.678;6.560;2023-07-31T05:30:44;22.50;55.60
20091;DHT22;10205;49.678;6.560;2023-07-31T05:33:12;22.50;55.70
20091;DHT22;10205;49.678;6.560;2023-07-31T05:35:39;22.40;55.70
20091;DHT22;10205;49.678;6.560;2023-07-31T05:38:07;22.40;55.70
20091;DHT22;10205;49.678;6.560;2023-07-31T05:40:34;22.40;55.70
20091;DHT22;10205;49.678;6.560;2023-07-31T05:43:03;22.40;55.70
20091;DHT22;10205;49.678;6.560;2023-07-31T05:45:32;22.40;55.70
20091;DHT22;10205;49.678;6.560;2023-07-31T05:47:59;22.40;55.70
20091;DHT22;10205;49.678;6.560;2023-07-31T05:50:27;22.40;55.90
20091;DHT22;10205;49.678;6.560;2023-07-31T05:52:54;22.40;55.80
20091;DHT22;10205;49.678;6.560;2023-07-31T05:55:22;22.40;55.80
20091;DHT22;10205;49.678;6.560;2023-07-31T05:57:49;22.40;55.90
20091;DHT22;10205;49.678;6.560;2023-07-31T06:00:19;22.40;55.90
20091;DHT22;10205;49.678;6.560;2023-07-31T06:02:48;22.40;56.00
20091;DHT22;10205;49.678;6.560;2023-07-31T06:05:15;22.40;56.00
20091;DHT22;10205;49.678;6.560;2023-07-31T06:07:43;22.40;55.90
20091;DHT22;10205;49.678;6.560;2023-07-31T06:10:10;22.40;56.00
20091;DHT22;10205;49.678;6.560;2023-07-31T06:12:39;22.40;56.10
20091;DHT22;10205;49.678;6.560;2023-07-31T06:15:07;22.40;56.10
20091;DHT22;10205;49.678;6.560;2023-07-31T06:17:37;22.40;56.10
20091;DHT22;10205;49.678;6.560;2023-07-31T06:20:06;22.40;56.20
20091;DHT22;10205;49.678;6.560;2023-07-31T06:22:36;22.40;56.20
20091;DHT22;10205;49.678;6.560;2023-07-31T06:25:05;22.40;56.30
20091;DHT22;10205;49.678;6.560;2023-07-31T06:27:33;22.40;56.40
20091;DHT22;10205;49.678;6.560;2023-07-31T06:30:01;22.40;56.40
20091;DHT22;10205;49.678;6.560;2023-07-31T06:32:29;22.40;56.30
20091;DHT22;10205;49.678;6.560;2023-07-31T06:34:58;22.40;56.30
20091;DHT22;10205;49.678;6.560;2023-07-31T06:37:26;22.40;56.30
20091;DHT22;10205;49.678;6.560;2023-07-31T06:39:54;22.50;56.30
20091;DHT22;10205;49.678;6.560;2023-07-31T06:42:21;22.50;56.40
20091;DHT22;10205;49.678;6.560;2023-07-31T06:44:49;22.50;56.30
20091;DHT22;10205;49.678;6.560;2023-07-31T06:47:17;22.50;56.20
20091;DHT22;10205;49.678;6.560;2023-07-31T06:49:44;22.50;56.20
20091;DHT22;10205;49.678;6.560;2023-07-31T06:52:14;22.60;56.20
20091;DHT22;10205;49.678;6.560;2023-07-31T06:54:41;22.60;56.30
20091;DHT22;10205;49.678;6.560;2023-07-31T06:57:09;22.60;56.20
20091;DHT22;10205;49.678;6.560;2023-07-31T06:59:36;22.60;56.10
20091;DHT22;10205;49.678;6.560;2023-07-31T07:02:04;22.60;56.10
20091;DHT22;10205;49.678;6.560;2023-07-31T07:04:32;22.70;56.10
20091;DHT22;10205;49.678;6.560;2023-07-31T07:07:00;22.70;55.90
20091;DHT22;10205;49.678;6.560;2023-07-31T07:09:28;22.70;56.00
20091;DHT22;10205;49.678;6.560;2023-07-31T07:11:56;22.70;56.00
20091;DHT22;10205;49.678;6.560;2023-07-31T07:14:23;22.70;56.00
20091;DHT22;10205;49.678;6.560;2023-07-31T07:16:51;22.80;56.00
20091;DHT22;10205;49.678;6.560;2023-07-31T07:19:18;22.70;55.90
20091;DHT22;10205;49.678;6.560;2023-07-31T07:21:46;22.80;56.00
20091;DHT22;10205;49.678;6.560;2023-07-31T07:24:14;22.80;56.00
20091;DHT22;10205;49.678;6.560;2023-07-31T07:26:42;22.80;56.00
20091;DHT22;10205;49.678;6.560;2023-07-31T07:29:10;22.80;56.00
20091;DHT22;10205;49.678;6.560;2023-07-31T07:31:37;22.90;56.00
20091;DHT22;10205;49.678;6.560;2023-07-31T07:34:05;22.90;56.00
20091;DHT22;10205;49.678;6.560;2023-07-31T07:36:33;22.90;55.90
20091;DHT22;10205;49.678;6.560;2023-07-31T07:39:01;22.90;55.90
20091;DHT22;10205;49.678;6.560;2023-07-31T07:41:29;23.00;55.90
20091;DHT22;10205;49.678;6.560;2023-07-31T07:43:58;23.00;55.90
20091;DHT22;10205;49.678;6.560;2023-07-31T07:46:25;23.10;55.90
20091;DHT22;10205;49.678;6.560;2023-07-31T07:48:53;23.10;55.90
20091;DHT22;10205;49.678;6.560;2023-07-31T07:51:21;23.10;55.90
20091;DHT22;10205;49.678;6.560;2023-07-31T07:53:49;23.10;55.70
20091;DHT22;10205;49.678;6.560;2023-07-31T07:56:16;23.20;55.80
20091;DHT22;10205;49.678;6.560;2023-07-31T07:58:44;23.20;55.70
20091;DHT22;10205;49.678;6.560;2023-07-31T08:01:16;23.20;55.70
20091;DHT22;10205;49.678;6.560;2023-07-31T08:03:44;23.20;55.70
20091;DHT22;10205;49.678;6.560;2023-07-31T08:06:12;23.30;55.60
20091;DHT22;10205;49.678;6.560;2023-07-31T08:08:39;23.40;55.60
20091;DHT22;10205;49.678;6.560;2023-07-31T08:11:07;23.40;55.40
20091;DHT22;10205;49.678;6.560;2023-07-31T08:13:35;23.40;55.50
20091;DHT22;10205;49.678;6.560;2023-07-31T08:16:03;23.40;55.40
20091;DHT22;10205;49.678;6.560;2023-07-31T08:18:33;23.50;55.40
20091;DHT22;10205;49.678;6.560;2023-07-31T08:21:02;23.50;55.40
20091;DHT22;10205;49.678;6.560;2023-07-31T08:23:29;23.60;55.20
20091;DHT22;10205;49.678;6.560;2023-07-31T08:25:57;23.60;55.20
20091;DHT22;10205;49.678;6.560;2023-07-31T08:28:25;23.60;55.10
20091;DHT22;10205;49.678;6.560;2023-07-31T08:30:53;23.60;55.10
20091;DHT22;10205;49.678;6.560;2023-07-31T08:33:20;23.70;55.10
20091;DHT22;10205;49.678;6.560;2023-07-31T08:35:49;23.70;55.10
20091;DHT22;10205;49.678;6.560;2023-07-31T08:38:17;23.70;55.00
20091;DHT22;10205;49.678;6.560;2023-07-31T08:40:45;23.80;54.80
20091;DHT22;10205;49.678;6.560;2023-07-31T08:43:13;23.80;54.90
20091;DHT22;10205;49.678;6.560;2023-07-31T08:45:42;23.80;54.90
20091;DHT22;10205;49.678;6.560;2023-07-31T08:48:11;23.80;54.80
20091;DHT22;10205;49.678;6.560;2023-07-31T08:50:40;23.90;54.80
20091;DHT22;10205;49.678;6.560;2023-07-31T08:53:09;23.90;54.90
20091;DHT22;10205;49.678;6.560;2023-07-31T08:55:38;23.90;54.60
20091;DHT22;10205;49.678;6.560;2023-07-31T08:58:06;24.00;54.60
20091;DHT22;10205;49.678;6.560;2023-07-31T09:00:34;24.00;54.50
20091;DHT22;10205;49.678;6.560;2023-07-31T09:03:08;24.00;54.60
20091;DHT22;10205;49.678;6.560;2023-07-31T09:05:39;24.10;54.60
20091;DHT22;10205;49.678;6.560;2023-07-31T09:08:12;24.10;54.50
20091;DHT22;10205;49.678;6.560;2023-07-31T09:10:41;24.20;54.40
20091;DHT22;10205;49.678;6.560;2023-07-31T09:13:11;24.20;54.50
20091;DHT22;10205;49.678;6.560;2023-07-31T09:15:40;24.20;54.40
20091;DHT22;10205;49.678;6.560;2023-07-31T09:18:11;24.30;54.40
20091;DHT22;10205;49.678;6.560;2023-07-31T09:20:40;24.30;54.30
20091;DHT22;10205;49.678;6.560;2023-07-31T09:23:08;24.30;54.30
20091;DHT22;10205;49.678;6.560;2023-07-31T09:25:39;24.30;54.30
20091;DHT22;10205;49.678;6.560;2023-07-31T09:28:10;24.40;54.10
20091;DHT22;10205;49.678;6.560;2023-07-31T09:30:47;24.40;54.10
20091;DHT22;10205;49.678;6.560;2023-07-31T09:33:17;24.40;53.90
20091;DHT22;10205;49.678;6.560;2023-07-31T09:35:47;24.40;53.90
20091;DHT22;10205;49.678;6.560;2023-07-31T09:38:16;24.50;53.90
20091;DHT22;10205;49.678;6.560;2023-07-31T09:40:46;24.50;53.70
20091;DHT22;10205;49.678;6.560;2023-07-31T09:43:20;24.50;53.60
20091;DHT22;10205;49.678;6.560;2023-07-31T09:45:55;24.60;53.30
20091;DHT22;10205;49.678;6.560;2023-07-31T09:48:24;24.60;53.40
20091;DHT22;10205;49.678;6.560;2023-07-31T09:50:53;24.60;53.30
20091;DHT22;10205;49.678;6.560;2023-07-31T09:53:28;24.60;53.40
20091;DHT22;10205;49.678;6.560;2023-07-31T09:55:58;24.60;52.80
20091;DHT22;10205;49.678;6.560;2023-07-31T09:58:28;24.60;53.20
20091;DHT22;10205;49.678;6.560;2023-07-31T10:00:58;24.70;53.20
20091;DHT22;10205;49.678;6.560;2023-07-31T10:03:27;24.70;53.30
20091;DHT22;10205;49.678;6.560;2023-07-31T10:05:57;24.80;53.10
20091;DHT22;10205;49.678;6.560;2023-07-31T10:08:32;24.80;53.10
20091;DHT22;10205;49.678;6.560;2023-07-31T10:11:04;24.80;53.00
20091;DHT22;10205;49.678;6.560;2023-07-31T10:13:34;24.80;53.10
20091;DHT22;10205;49.678;6.560;2023-07-31T10:16:03;24.90;52.90
20091;DHT22;10205;49.678;6.560;2023-07-31T10:18:32;24.90;52.80
20091;DHT22;10205;49.678;6.560;2023-07-31T10:21:02;24.90;52.50
20091;DHT22;10205;49.678;6.560;2023-07-31T10:23:31;25.00;52.60
20091;DHT22;10205;49.678;6.560;2023-07-31T10:26:00;25.00;52.60
20091;DHT22;10205;49.678;6.560;2023-07-31T10:28:33;25.00;52.60
20091;DHT22;10205;49.678;6.560;2023-07-31T10:31:03;25.00;52.60
20091;DHT22;10205;49.678;6.560;2023-07-31T10:33:32;25.00;52.40
20091;DHT22;10205;49.678;6.560;2023-07-31T10:36:14;25.10;52.30
20091;DHT22;10205;49.678;6.560;2023-07-31T10:38:45;25.00;51.90
20091;DHT22;10205;49.678;6.560;2023-07-31T10:41:15;25.10;52.30
20091;DHT22;10205;49.678;6.560;2023-07-31T10:43:43;25.10;52.10
20091;DHT22;10205;49.678;6.560;2023-07-31T10:46:14;25.10;51.80
20091;DHT22;10205;49.678;6.560;2023-07-31T10:48:42;25.10;51.90
20091;DHT22;10205;49.678;6.560;2023-07-31T10:51:11;25.20;52.10
20091;DHT22;10205;49.678;6.560;2023-07-31T10:53:39;25.10;51.70
20091;DHT22;10205;49.678;6.560;2023-07-31T10:56:10;25.20;52.10
20091;DHT22;10205;49.678;6.560;2023-07-31T10:58:39;25.20;51.70
20091;DHT22;10205;49.678;6.560;2023-07-31T11:01:10;25.20;51.90
20091;DHT22;10205;49.678;6.560;2023-07-31T11:03:42;25.20;51.70
20091;DHT22;10205;49.678;6.560;2023-07-31T11:06:10;25.20;51.80
20091;DHT22;10205;49.678;6.560;2023-07-31T11:08:42;25.20;52.00
20091;DHT22;10205;49.678;6.560;2023-07-31T11:11:15;25.30;51.80
20091;DHT22;10205;49.678;6.560;2023-07-31T11:13:45;25.20;51.80
20091;DHT22;10205;49.678;6.560;2023-07-31T11:16:18;25.20;51.90
20091;DHT22;10205;49.678;6.560;2023-07-31T11:18:48;25.30;52.00
20091;DHT22;10205;49.678;6.560;2023-07-31T11:21:18;25.30;51.90
20091;DHT22;10205;49.678;6.560;2023-07-31T11:23:47;25.30;52.00
20091;DHT22;10205;49.678;6.560;2023-07-31T11:26:19;25.30;52.10
20091;DHT22;10205;49.678;6.560;2023-07-31T11:28:47;25.30;51.80
20091;DHT22;10205;49.678;6.560;2023-07-31T11:31:16;25.40;52.00
20091;DHT22;10205;49.678;6.560;2023-07-31T11:33:46;25.40;52.00
20091;DHT22;10205;49.678;6.560;2023-07-31T11:36:18;25.40;51.90
20091;DHT22;10205;49.678;6.560;2023-07-31T11:38:47;25.40;51.90
20091;DHT22;10205;49.678;6.560;2023-07-31T11:41:15;25.40;52.00
20091;DHT22;10205;49.678;6.560;2023-07-31T11:43:46;25.40;51.90
20091;DHT22;10205;49.678;6.560;2023-07-31T11:46:15;25.40;51.90
20091;DHT22;10205;49.678;6.560;2023-07-31T11:48:43;25.40;51.90
20091;DHT22;10205;49.678;6.560;2023-07-31T11:51:12;25.40;51.90
20091;DHT22;10205;49.678;6.560;2023-07-31T11:53:43;25.40;51.90
20091;DHT22;10205;49.678;6.560;2023-07-31T11:56:14;25.50;52.50
20091;DHT22;10205;49.678;6.560;2023-07-31T11:58:47;25.50;51.90
20091;DHT22;10205;49.678;6.560;2023-07-31T12:01:19;25.50;51.90
20091;DHT22;10205;49.678;6.560;2023-07-31T12:03:50;25.50;51.80
20091;DHT22;10205;49.678;6.560;2023-07-31T12:06:18;25.50;51.90
20091;DHT22;10205;49.678;6.560;2023-07-31T12:08:46;25.50;51.90
20091;DHT22;10205;49.678;6.560;2023-07-31T12:11:14;25.50;51.70
20091;DHT22;10205;49.678;6.560;2023-07-31T12:13:45;25.50;51.80
20091;DHT22;10205;49.678;6.560;2023-07-31T12:16:12;25.50;51.70
20091;DHT22;10205;49.678;6.560;2023-07-31T12:18:40;25.50;51.70
20091;DHT22;10205;49.678;6.560;2023-07-31T12:21:09;25.50;51.70
20091;DHT22;10205;49.678;6.560;2023-07-31T12:23:37;25.50;51.40
20091;DHT22;10205;49.678;6.560;2023-07-31T12:26:09;25.50;51.60
20091;DHT22;10205;49.678;6.560;2023-07-31T12:28:40;25.50;51.50
20091;DHT22;10205;49.678;6.560;2023-07-31T12:31:11;25.50;51.70
20091;DHT22;10205;49.678;6.560;2023-07-31T12:33:41;25.50;51.70
20091;DHT22;10205;49.678;6.560;2023-07-31T12:36:10;25.50;51.80
20091;DHT22;10205;49.678;6.560;2023-07-31T12:38:39;25.40;51.80
20091;DHT22;10205;49.678;6.560;2023-07-31T12:41:07;25.40;51.90
20091;DHT22;10205;49.678;6.560;2023-07-31T12:43:36;25.40;52.00
20091;DHT22;10205;49.678;6.560;2023-07-31T12:46:04;25.40;52.10
20091;DHT22;10205;49.678;6.560;2023-07-31T12:48:34;25.40;52.20
20091;DHT22;10205;49.678;6.560;2023-07-31T12:51:03;25.40;52.20
20091;DHT22;10205;49.678;6.560;2023-07-31T12:53:32;25.40;52.60
20091;DHT22;10205;49.678;6.560;2023-07-31T12:55:59;25.30;52.50
20091;DHT22;10205;49.678;6.560;2023-07-31T12:58:29;25.40;52.70
20091;DHT22;10205;49.678;6.560;2023-07-31T13:00:56;25.30;52.80
20091;DHT22;10205;49.678;6.560;2023-07-31T13:03:24;25.30;53.10
20091;DHT22;10205;49.678;6.560;2023-07-31T13:05:53;25.30;53.10
20091;DHT22;10205;49.678;6.560;2023-07-31T13:08:21;25.30;53.10
20091;DHT22;10205;49.678;6.560;2023-07-31T13:10:49;25.30;53.10
20091;DHT22;10205;49.678;6.560;2023-07-31T13:13:17;25.30;53.10
20091;DHT22;10205;49.678;6.560;2023-07-31T13:15:44;25.30;53.00
20091;DHT22;10205;49.678;6.560;2023-07-31T13:18:12;25.30;53.00
20091;DHT22;10205;49.678;6.560;2023-07-31T13:20:39;25.30;53.00
20091;DHT22;10205;49.678;6.560;2023-07-31T13:23:08;25.30;53.00
20091;DHT22;10205;49.678;6.560;2023-07-31T13:25:36;25.40;53.00
20091;DHT22;10205;49.678;6.560;2023-07-31T13:28:04;25.40;53.00
20091;DHT22;10205;49.678;6.560;2023-07-31T13:30:31;25.40;53.30
20091;DHT22;10205;49.678;6.560;2023-07-31T13:32:59;25.40;53.10
20091;DHT22;10205;49.678;6.560;2023-07-31T13:35:26;25.40;53.80
20091;DHT22;10205;49.678;6.560;2023-07-31T13:37:56;25.40;53.20
20091;DHT22;10205;49.678;6.560;2023-07-31T13:40:25;25.40;53.30
20091;DHT22;10205;49.678;6.560;2023-07-31T13:42:53;25.40;53.20
20091;DHT22;10205;49.678;6.560;2023-07-31T13:45:21;25.40;53.20
20091;DHT22;10205;49.678;6.560;2023-07-31T13:47:50;25.50;53.10
20091;DHT22;10205;49.678;6.560;2023-07-31T13:50:18;25.50;53.90
20091;DHT22;10205;49.678;6.560;2023-07-31T13:52:47;25.50;53.10
20091;DHT22;10205;49.678;6.560;2023-07-31T13:55:14;25.50;53.10
20091;DHT22;10205;49.678;6.560;2023-07-31T13:57:43;25.50;53.00
20091;DHT22;10205;49.678;6.560;2023-07-31T14:00:12;25.50;53.00
20091;DHT22;10205;49.678;6.560;2023-07-31T14:02:41;25.50;52.80
20091;DHT22;10205;49.678;6.560;2023-07-31T14:05:08;25.50;52.90
20091;DHT22;10205;49.678;6.560;2023-07-31T14:07:36;25.50;53.00
20091;DHT22;10205;49.678;6.560;2023-07-31T14:10:04;25.50;53.00
20091;DHT22;10205;49.678;6.560;2023-07-31T14:12:32;25.50;53.00
20091;DHT22;10205;49.678;6.560;2023-07-31T14:15:02;25.50;53.00
20091;DHT22;10205;49.678;6.560;2023-07-31T14:17:30;25.60;53.00
20091;DHT22;10205;49.678;6.560;2023-07-31T14:19:57;25.50;53.10
20091;DHT22;10205;49.678;6.560;2023-07-31T14:22:29;25.50;53.10
20091;DHT22;10205;49.678;6.560;2023-07-31T14:24:59;25.50;53.30
20091;DHT22;10205;49.678;6.560;2023-07-31T14:27:26;25.50;53.20
20091;DHT22;10205;49.678;6.560;2023-07-31T14:29:54;25.50;53.20
20091;DHT22;10205;49.678;6.560;2023-07-31T14:32:23;25.50;53.20
20091;DHT22;10205;49.678;6.560;2023-07-31T14:34:51;25.60;53.30
20091;DHT22;10205;49.678;6.560;2023-07-31T14:37:20;25.60;53.30
20091;DHT22;10205;49.678;6.560;2023-07-31T14:39:48;25.60;53.30
20091;DHT22;10205;49.678;6.560;2023-07-31T14:42:16;25.60;53.20
20091;DHT22;10205;49.678;6.560;2023-07-31T14:44:44;25.60;53.30
20091;DHT22;10205;49.678;6.560;2023-07-31T14:47:12;25.60;53.20
20091;DHT22;10205;49.678;6.560;2023-07-31T14:49:42;25.60;53.30
20091;DHT22;10205;49.678;6.560;2023-07-31T14:52:09;25.60;53.30
20091;DHT22;10205;49.678;6.560;2023-07-31T14:54:37;25.60;53.20
20091;DHT22;10205;49.678;6.560;2023-07-31T14:57:05;25.60;53.40
20091;DHT22;10205;49.678;6.560;2023-07-31T14:59:33;25.60;53.50
20091;DHT22;10205;49.678;6.560;2023-07-31T15:02:01;25.50;53.50
20091;DHT22;10205;49.678;6.560;2023-07-31T15:04:29;25.50;53.50
20091;DHT22;10205;49.678;6.560;2023-07-31T15:06:58;25.50;53.50
20091;DHT22;10205;49.678;6.560;2023-07-31T15:09:26;25.50;53.60
20091;DHT22;10205;49.678;6.560;2023-07-31T15:11:53;25.50;53.70
20091;DHT22;10205;49.678;6.560;2023-07-31T15:14:22;25.50;53.80
20091;DHT22;10205;49.678;6.560;2023-07-31T15:16:51;25.40;53.70
20091;DHT22;10205;49.678;6.560;2023-07-31T15:19:18;25.40;53.70
20091;DHT22;10205;49.678;6.560;2023-07-31T15:21:46;25.40;53.70
20091;DHT22;10205;49.678;6.560;2023-07-31T15:24:15;25.40;53.90
20091;DHT22;10205;49.678;6.560;2023-07-31T15:26:43;25.40;53.90
20091;DHT22;10205;49.678;6.560;2023-07-31T15:29:10;25.40;54.00
20091;DHT22;10205;49.678;6.560;2023-07-31T15:31:43;25.30;54.20
20091;DHT22;10205;49.678;6.560;2023-07-31T15:34:11;25.30;54.50
20091;DHT22;10205;49.678;6.560;2023-07-31T15:36:39;25.30;55.40
20091;DHT22;10205;49.678;6.560;2023-07-31T15:39:07;25.30;56.00